createdAt,value
2022-08-10T00:01:15.696Z,0.80
2022-08-10T00:03:42.633Z,0.65
2022-08-10T00:06:09.546Z,0.73
2022-08-10T00:08:37.033Z,0.70
2022-08-10T00:11:04.090Z,0.80
2022-08-10T00:13:31.223Z,0.60
2022-08-10T00:15:58.027Z,0.90
2022-08-10T00:18:34.966Z,0.70
2022-08-10T00:21:08.682Z,0.80
2022-08-10T00:23:36.880Z,0.70
2022-08-10T00:26:04.657Z,0.70
2022-08-10T00:28:31.729Z,0.90
2022-08-10T00:30:58.709Z,1.00
2022-08-10T00:33:25.795Z,0.80
2022-08-10T00:35:52.706Z,0.80
2022-08-10T00:38:19.573Z,0.90
2022-08-10T00:40:46.503Z,0.70
2022-08-10T00:43:13.662Z,0.90
2022-08-10T00:45:40.666Z,1.00
2022-08-10T00:48:07.654Z,0.90
2022-08-10T00:50:34.724Z,0.90
2022-08-10T00:53:01.943Z,0.85
2022-08-10T00:55:29.026Z,0.80
2022-08-10T00:57:56.693Z,1.00
2022-08-10T01:00:24.714Z,0.80
2022-08-10T01:02:52.335Z,0.98
2022-08-10T01:05:23.199Z,0.80
2022-08-10T01:08:16.799Z,0.80
2022-08-10T01:12:37.548Z,0.90
2022-08-10T01:14:09.751Z,0.80
2022-08-10T01:17:10.593Z,0.90
2022-08-10T01:20:03.090Z,0.70
2022-08-10T01:22:42.750Z,0.60
2022-08-10T01:25:29.666Z,0.88
2022-08-10T01:28:19.481Z,0.90
2022-08-10T01:30:48.105Z,0.88
2022-08-10T01:33:29.915Z,0.98
2022-08-10T01:36:14.671Z,0.90
2022-08-10T01:38:46.170Z,1.02
2022-08-10T01:41:21.783Z,0.80
2022-08-10T01:44:03.534Z,0.80
2022-08-10T01:46:32.924Z,0.98
2022-08-10T01:49:02.841Z,0.82
2022-08-10T01:51:52.857Z,0.90
2022-08-10T01:54:21.497Z,0.90
2022-08-10T01:56:52.662Z,1.00
2022-08-10T01:59:24.439Z,0.90
2022-08-10T02:01:58.509Z,0.80
2022-08-10T02:04:28.035Z,0.90
2022-08-10T02:06:56.194Z,1.08
2022-08-10T02:09:29.430Z,1.00
2022-08-10T02:12:07.616Z,0.90
2022-08-10T02:15:07.937Z,1.23
2022-08-10T02:18:00.967Z,1.20
2022-08-10T02:20:35.663Z,1.30
2022-08-10T02:23:09.987Z,1.33
2022-08-10T02:25:43.186Z,1.55
2022-08-10T02:28:29.869Z,1.60
2022-08-10T02:31:23.101Z,1.90
2022-08-10T02:33:57.691Z,1.60
2022-08-10T02:36:33.092Z,1.50
2022-08-10T02:39:05.080Z,1.35
2022-08-10T02:45:02.254Z,1.58
2022-08-10T02:45:27.427Z,1.63
2022-08-10T02:48:00.477Z,1.70
2022-08-10T02:50:36.916Z,1.93
2022-08-10T02:53:54.654Z,1.80
2022-08-10T02:56:15.178Z,1.75
2022-08-10T02:58:46.262Z,1.58
2022-08-10T03:01:18.214Z,1.63
2022-08-10T03:03:53.214Z,1.70
2022-08-10T03:06:23.819Z,1.60
2022-08-10T03:08:52.166Z,1.90
2022-08-10T03:12:35.083Z,1.85
2022-08-10T03:14:20.219Z,1.80
2022-08-10T03:16:47.945Z,1.70
2022-08-10T03:20:33.958Z,1.80
2022-08-10T03:22:04.738Z,1.58
2022-08-10T03:24:34.078Z,1.40
2022-08-10T03:27:01.777Z,1.52
2022-08-10T03:29:30.775Z,1.48
2022-08-10T03:32:19.410Z,1.38
2022-08-10T03:34:46.980Z,1.23
2022-08-10T03:37:13.864Z,1.30
2022-08-10T03:39:40.879Z,1.40
2022-08-10T03:42:13.097Z,1.30
2022-08-10T03:44:43.045Z,1.40
2022-08-10T03:47:16.274Z,1.20
2022-08-10T03:49:45.292Z,1.27
2022-08-10T03:52:12.520Z,1.20
2022-08-10T03:54:41.104Z,1.30
2022-08-10T03:57:08.199Z,1.20
2022-08-10T03:59:36.795Z,1.10
2022-08-10T04:02:46.823Z,1.40
2022-08-10T04:04:53.563Z,1.30
2022-08-10T04:07:21.286Z,1.20
2022-08-10T04:09:54.553Z,1.20
2022-08-10T04:12:23.589Z,1.23
2022-08-10T04:14:52.902Z,1.20
2022-08-10T04:18:00.261Z,1.38
2022-08-10T04:20:25.588Z,1.23
2022-08-10T04:23:00.417Z,1.33
2022-08-10T04:25:28.061Z,1.20
2022-08-10T04:27:55.558Z,1.10
2022-08-10T04:30:24.028Z,1.30
2022-08-10T04:32:55.846Z,1.23
2022-08-10T04:35:26.515Z,1.25
2022-08-10T04:37:56.008Z,1.30
2022-08-10T04:40:28.750Z,1.85
2022-08-10T04:43:01.363Z,1.35
2022-08-10T04:45:47.736Z,1.40
2022-08-10T04:48:43.065Z,1.40
2022-08-10T04:51:16.926Z,1.45
2022-08-10T04:54:02.774Z,1.38
2022-08-10T04:56:32.711Z,2.05
2022-08-10T04:59:00.700Z,1.50
2022-08-10T05:02:21.508Z,1.40
2022-08-10T05:04:37.517Z,1.60
2022-08-10T05:07:01.805Z,1.63
2022-08-10T05:09:28.634Z,1.60
2022-08-10T05:11:55.452Z,1.30
2022-08-10T05:14:22.285Z,1.55
2022-08-10T05:16:49.063Z,1.67
2022-08-10T05:19:15.920Z,1.75
2022-08-10T05:22:02.255Z,1.33
2022-08-10T05:24:29.533Z,1.85
2022-08-10T05:27:09.460Z,1.83
2022-08-10T05:29:37.986Z,1.50
2022-08-10T05:32:05.283Z,1.42
2022-08-10T05:34:32.265Z,2.10
2022-08-10T05:37:00.411Z,1.50
2022-08-10T05:39:31.995Z,1.60
2022-08-10T05:42:01.498Z,1.60
2022-08-10T05:44:29.539Z,1.80
2022-08-10T05:46:56.671Z,1.38
2022-08-10T05:49:23.539Z,1.30
2022-08-10T05:51:50.611Z,1.20
2022-08-10T05:54:17.683Z,1.52
2022-08-10T05:56:53.298Z,1.40
2022-08-10T06:00:29.333Z,1.45
2022-08-10T06:02:30.841Z,1.40
2022-08-10T06:05:05.978Z,1.00
2022-08-10T06:07:35.290Z,1.40
2022-08-10T06:10:02.949Z,1.50
2022-08-10T06:12:55.663Z,2.42
2022-08-10T06:15:51.559Z,2.03
2022-08-10T06:18:17.015Z,2.25
2022-08-10T06:20:46.502Z,1.40
2022-08-10T06:23:14.634Z,1.23
2022-08-10T06:26:08.662Z,1.58
2022-08-10T06:28:31.883Z,1.50
2022-08-10T06:31:02.005Z,1.63
2022-08-10T06:33:31.987Z,2.37
2022-08-10T06:36:00.836Z,1.65
2022-08-10T06:38:32.269Z,1.80
2022-08-10T06:41:05.021Z,1.75
2022-08-10T06:43:34.315Z,1.67
2022-08-10T06:46:08.610Z,1.50
2022-08-10T06:48:47.386Z,1.58
2022-08-10T06:51:18.395Z,1.17
2022-08-10T06:56:35.743Z,1.10
2022-08-10T06:59:13.346Z,1.50
2022-08-10T07:01:54.001Z,2.58
2022-08-10T07:04:45.017Z,1.13
2022-08-10T07:07:18.542Z,1.20
2022-08-10T07:09:46.302Z,1.40
2022-08-10T07:12:15.085Z,1.30
2022-08-10T07:14:45.285Z,1.30
2022-08-10T07:17:15.575Z,1.30
2022-08-10T07:19:49.647Z,1.05
2022-08-10T07:23:01.307Z,1.20
2022-08-10T07:25:08.057Z,1.20
2022-08-10T07:27:58.391Z,1.13
2022-08-10T07:30:24.574Z,1.23
2022-08-10T07:32:52.865Z,1.00
2022-08-10T07:35:21.928Z,1.10
2022-08-10T07:37:51.594Z,1.10
2022-08-10T07:40:21.131Z,1.27
2022-08-10T07:42:51.413Z,1.23
2022-08-10T07:45:18.640Z,1.57
2022-08-10T07:47:54.719Z,1.02
2022-08-10T07:50:24.828Z,1.17
2022-08-10T07:52:55.776Z,1.10
2022-08-10T07:56:04.108Z,1.20
2022-08-10T07:58:12.174Z,1.48
2022-08-10T08:00:41.144Z,1.10
2022-08-10T08:03:09.787Z,1.40
2022-08-10T08:05:59.415Z,1.20
2022-08-10T08:08:28.313Z,1.05
2022-08-10T08:10:58.376Z,1.20
2022-08-10T08:13:26.846Z,1.10
2022-08-10T08:16:20.612Z,1.40
2022-08-10T08:18:58.219Z,1.45
2022-08-10T08:24:09.315Z,1.30
2022-08-10T08:24:31.530Z,1.15
2022-08-10T08:27:00.586Z,1.30
2022-08-10T08:29:28.788Z,1.20
2022-08-10T08:32:01.930Z,1.30
2022-08-10T08:34:33.056Z,1.65
2022-08-10T08:37:01.501Z,1.30
2022-08-10T08:39:30.136Z,1.40
2022-08-10T08:42:09.871Z,1.20
2022-08-10T08:44:48.831Z,1.42
2022-08-10T08:48:03.767Z,1.30
2022-08-10T08:50:50.936Z,1.40
2022-08-10T08:54:01.741Z,1.33
2022-08-10T08:57:02.410Z,1.85
2022-08-10T08:59:48.060Z,1.45
2022-08-10T09:02:27.240Z,1.58
2022-08-10T09:05:14.177Z,1.50
2022-08-10T09:08:03.110Z,1.70
2022-08-10T09:11:02.242Z,1.50
2022-08-10T09:13:40.004Z,1.65
2022-08-10T09:16:30.218Z,1.35
2022-08-10T09:19:34.722Z,1.60
2022-08-10T09:22:19.106Z,1.33
2022-08-10T09:24:56.921Z,1.40
2022-08-10T09:27:49.604Z,2.30
2022-08-10T09:30:28.376Z,1.60
2022-08-10T09:36:25.755Z,1.58
2022-08-10T09:36:32.289Z,1.60
2022-08-10T09:39:12.325Z,1.63
2022-08-10T09:41:59.281Z,1.35
2022-08-10T09:44:31.870Z,1.60
2022-08-10T09:47:01.804Z,1.60
2022-08-10T09:50:04.712Z,1.50
2022-08-10T09:52:41.055Z,1.42
2022-08-10T09:56:19.143Z,1.60
2022-08-10T09:58:50.397Z,1.40
2022-08-10T10:02:02.814Z,1.50
2022-08-10T10:05:02.627Z,1.20
2022-08-10T10:07:31.017Z,1.20
2022-08-10T10:10:08.101Z,1.40
2022-08-10T10:13:07.721Z,1.23
2022-08-10T10:16:12.109Z,1.40
2022-08-10T10:18:48.336Z,1.60
2022-08-10T10:21:54.980Z,1.38
2022-08-10T10:24:35.118Z,1.30
2022-08-10T10:27:19.631Z,1.30
2022-08-10T10:29:59.549Z,1.00
2022-08-10T10:32:36.739Z,1.30
2022-08-10T10:35:16.695Z,1.20
2022-08-10T10:38:02.925Z,1.25
2022-08-10T10:41:07.465Z,1.25
2022-08-10T10:44:05.608Z,1.02
2022-08-10T10:46:51.661Z,1.00
2022-08-10T10:49:32.480Z,1.10
2022-08-10T10:52:21.542Z,1.10
2022-08-10T10:55:05.317Z,1.00
2022-08-10T10:57:58.585Z,1.00
2022-08-10T11:00:49.910Z,1.15
2022-08-10T11:03:47.982Z,1.10
2022-08-10T11:06:45.929Z,1.20
2022-08-10T11:10:05.263Z,1.20
2022-08-10T11:12:37.744Z,0.80
2022-08-10T11:15:23.281Z,1.00
2022-08-10T11:17:56.808Z,1.40
2022-08-10T11:20:33.592Z,1.33
2022-08-10T11:23:10.070Z,1.13
2022-08-10T11:25:41.921Z,1.10
2022-08-10T11:28:37.089Z,1.25
2022-08-10T11:31:16.275Z,1.30
2022-08-10T11:34:48.720Z,1.50
2022-08-10T11:37:00.496Z,1.20
2022-08-10T11:39:37.370Z,1.40
2022-08-10T11:42:31.671Z,1.40
2022-08-10T11:45:17.842Z,1.38
2022-08-10T11:47:57.405Z,1.30
2022-08-10T11:50:34.476Z,1.50
2022-08-10T11:53:27.234Z,1.38
2022-08-10T11:56:09.841Z,1.45
2022-08-10T11:59:01.915Z,1.30
2022-08-10T12:01:47.733Z,1.40
2022-08-10T12:04:16.544Z,1.48
2022-08-10T12:06:55.989Z,1.40
2022-08-10T12:10:09.931Z,1.50
2022-08-10T12:12:13.971Z,1.63
2022-08-10T12:14:55.472Z,1.30
2022-08-10T12:17:50.123Z,1.40
2022-08-10T12:20:29.303Z,1.20
2022-08-10T12:23:08.187Z,1.40
2022-08-10T12:25:55.875Z,1.20
2022-08-10T12:28:52.190Z,1.20
2022-08-10T12:31:23.380Z,1.13
2022-08-10T12:34:02.257Z,1.20
2022-08-10T12:36:38.934Z,1.10
2022-08-10T12:39:28.135Z,1.13
2022-08-10T12:42:07.816Z,1.20
2022-08-10T12:44:48.507Z,1.42
2022-08-10T12:47:18.291Z,1.13
2022-08-10T12:50:29.560Z,1.23
2022-08-10T12:53:06.378Z,1.27
2022-08-10T12:55:35.020Z,1.00
2022-08-10T12:58:10.765Z,1.25
2022-08-10T13:01:15.227Z,1.30
2022-08-10T13:04:23.324Z,1.30
2022-08-10T13:06:34.420Z,1.07
2022-08-10T13:09:10.723Z,1.10
2022-08-10T13:12:37.275Z,1.15
2022-08-10T13:15:44.592Z,1.20
2022-08-10T13:17:58.243Z,1.30
2022-08-10T13:23:01.262Z,1.10
2022-08-10T13:25:40.902Z,1.05
2022-08-10T13:28:36.018Z,1.30
2022-08-10T13:31:04.970Z,1.08
2022-08-10T13:34:41.415Z,1.00
2022-08-10T13:36:26.516Z,1.15
2022-08-10T13:38:56.998Z,1.02
2022-08-10T13:41:35.845Z,0.98
2022-08-10T13:44:02.853Z,0.82
2022-08-10T13:46:31.561Z,1.00
2022-08-10T13:49:00.210Z,1.00
2022-08-10T13:51:54.400Z,1.00
2022-08-10T13:54:21.012Z,0.90
2022-08-10T13:56:49.846Z,0.80
2022-08-10T13:59:18.160Z,0.90
2022-08-10T14:01:52.562Z,1.00
2022-08-10T14:04:20.220Z,0.85
2022-08-10T14:06:57.056Z,0.90
2022-08-10T14:09:34.395Z,0.90
2022-08-10T14:12:01.957Z,0.90
2022-08-10T14:14:32.927Z,0.93
2022-08-10T14:17:01.229Z,1.10
2022-08-10T14:19:32.978Z,1.00
2022-08-10T14:22:00.259Z,0.90
2022-08-10T14:24:29.666Z,0.73
2022-08-10T14:27:07.334Z,0.90
2022-08-10T14:29:43.165Z,0.90
2022-08-10T14:32:12.153Z,1.00
2022-08-10T14:36:15.578Z,1.00
2022-08-10T14:37:43.797Z,0.85
2022-08-10T14:40:15.064Z,0.80
2022-08-10T14:43:09.472Z,0.80
2022-08-10T14:45:39.788Z,1.00
2022-08-10T14:48:12.069Z,1.05
2022-08-10T14:50:55.325Z,0.93
2022-08-10T14:53:26.592Z,0.90
2022-08-10T14:56:02.137Z,1.10
2022-08-10T14:58:38.420Z,1.00
2022-08-10T15:01:08.235Z,1.00
2022-08-10T15:04:00.659Z,1.20
2022-08-10T15:06:38.319Z,1.10
2022-08-10T15:09:19.161Z,1.00
2022-08-10T15:12:13.389Z,0.80
2022-08-10T15:14:43.179Z,0.80
2022-08-10T15:17:14.052Z,0.98
2022-08-10T15:20:02.097Z,1.20
2022-08-10T15:22:39.460Z,0.80
2022-08-10T15:25:18.270Z,1.10
2022-08-10T15:27:55.078Z,1.10
2022-08-10T15:30:30.690Z,1.10
2022-08-10T15:33:21.237Z,0.95
2022-08-10T15:36:27.135Z,1.00
2022-08-10T15:39:03.132Z,1.00
2022-08-10T15:41:58.714Z,0.90
2022-08-10T15:44:43.266Z,0.95
2022-08-10T15:47:20.439Z,0.90
2022-08-10T15:50:13.302Z,0.88
2022-08-10T15:53:00.505Z,0.90
2022-08-10T15:55:42.550Z,1.20
2022-08-10T15:58:20.047Z,1.05
2022-08-10T16:02:03.588Z,0.80
2022-08-10T16:04:18.127Z,1.00
2022-08-10T16:06:50.121Z,0.90
2022-08-10T16:10:24.516Z,1.08
2022-08-10T16:12:34.141Z,1.63
2022-08-10T16:15:07.941Z,1.30
2022-08-10T16:17:55.069Z,1.00
2022-08-10T16:20:32.602Z,0.93
2022-08-10T16:23:06.542Z,1.38
2022-08-10T16:25:48.156Z,1.70
2022-08-10T16:28:23.698Z,0.90
2022-08-10T16:30:55.831Z,1.10
2022-08-10T16:33:28.079Z,1.17
2022-08-10T16:36:17.777Z,0.90
2022-08-10T16:38:48.571Z,1.55
2022-08-10T16:42:02.126Z,1.02
2022-08-10T16:44:06.536Z,1.10
2022-08-10T16:46:34.552Z,1.25
2022-08-10T16:49:02.625Z,0.98
2022-08-10T16:51:31.128Z,1.80
2022-08-10T16:54:01.138Z,1.38
2022-08-10T16:56:33.032Z,1.48
2022-08-10T16:59:03.044Z,1.20
2022-08-10T17:01:36.990Z,1.10
2022-08-10T17:04:10.199Z,1.30
2022-08-10T17:06:59.370Z,1.17
2022-08-10T17:09:35.342Z,1.20
2022-08-10T17:12:11.644Z,1.10
2022-08-10T17:14:41.865Z,1.10
2022-08-10T17:17:14.401Z,1.10
2022-08-10T17:19:43.782Z,1.38
2022-08-10T17:22:20.534Z,0.90
2022-08-10T17:24:56.680Z,1.40
2022-08-10T17:28:04.090Z,1.20
2022-08-10T17:30:33.695Z,1.27
2022-08-10T17:33:13.193Z,1.00
2022-08-10T17:35:42.653Z,1.33
2022-08-10T17:38:18.097Z,1.00
2022-08-10T17:40:54.878Z,1.20
2022-08-10T17:43:46.368Z,0.80
2022-08-10T17:46:15.810Z,0.90
2022-08-10T17:48:44.699Z,0.90
2022-08-10T17:51:15.518Z,1.00
2022-08-10T17:53:46.864Z,1.10
2022-08-10T17:56:16.067Z,1.20
2022-08-10T17:58:59.449Z,1.00
2022-08-10T18:01:40.479Z,1.45
2022-08-10T18:04:19.552Z,1.10
2022-08-10T18:06:54.871Z,1.80
2022-08-10T18:09:42.496Z,1.50
2022-08-10T18:12:18.411Z,1.60
2022-08-10T18:14:48.603Z,1.50
2022-08-10T18:17:21.003Z,1.38
2022-08-10T18:19:58.755Z,1.55
2022-08-10T18:22:27.119Z,1.40
2022-08-10T18:24:58.038Z,2.33
2022-08-10T18:30:14.931Z,1.55
2022-08-10T18:32:48.346Z,1.40
2022-08-10T18:35:17.366Z,1.98
2022-08-10T18:37:49.600Z,1.75
2022-08-10T18:40:17.937Z,1.90
2022-08-10T18:42:47.255Z,1.50
2022-08-10T18:45:21.192Z,1.35
2022-08-10T18:47:59.467Z,1.75
2022-08-10T18:50:31.886Z,1.40
2022-08-10T18:53:04.896Z,1.35
2022-08-10T18:55:39.759Z,2.15
2022-08-10T19:01:17.944Z,1.77
2022-08-10T19:04:18.542Z,2.05
2022-08-10T19:07:15.791Z,1.55
2022-08-10T19:09:56.815Z,2.22
2022-08-10T19:15:11.156Z,1.75
2022-08-10T19:18:03.688Z,1.40
2022-08-10T19:20:36.774Z,1.38
2022-08-10T19:23:06.044Z,2.10
2022-08-10T19:26:36.496Z,1.40
2022-08-10T19:29:09.178Z,2.00
2022-08-10T19:31:54.441Z,2.00
2022-08-10T19:34:42.650Z,1.48
2022-08-10T19:37:40.415Z,1.83
2022-08-10T19:40:18.233Z,1.70
2022-08-10T19:43:09.161Z,1.60
2022-08-10T19:46:00.845Z,1.30
2022-08-10T19:48:52.614Z,1.40
2022-08-10T19:51:26.823Z,1.90
2022-08-10T19:54:06.440Z,1.55
2022-08-10T19:56:42.090Z,1.70
2022-08-10T20:00:16.088Z,1.38
2022-08-10T20:02:25.974Z,1.77
2022-08-10T20:05:16.616Z,1.55
2022-08-10T20:08:09.591Z,1.80
2022-08-10T20:10:56.719Z,1.30
2022-08-10T20:13:34.470Z,1.10
2022-08-10T20:16:07.614Z,1.30
2022-08-10T20:18:44.124Z,1.30
2022-08-10T20:21:14.996Z,1.52
2022-08-10T20:26:29.762Z,1.60
2022-08-10T20:29:16.504Z,1.35
2022-08-10T20:32:24.140Z,1.33
2022-08-10T20:35:01.242Z,1.92
2022-08-10T20:37:46.952Z,2.13
2022-08-10T20:40:35.784Z,1.63
2022-08-10T20:43:13.567Z,1.98
2022-08-10T20:46:07.055Z,1.80
2022-08-10T20:48:42.807Z,1.83
2022-08-10T20:51:15.649Z,1.20
2022-08-10T20:53:50.448Z,1.50
2022-08-10T20:56:22.339Z,1.35
2022-08-10T20:59:07.086Z,1.60
2022-08-10T21:02:17.710Z,1.45
2022-08-10T21:05:32.334Z,1.30
2022-08-10T21:08:36.180Z,1.73
2022-08-10T21:11:29.783Z,1.60
2022-08-10T21:14:12.151Z,1.40
2022-08-10T21:16:57.003Z,1.50
2022-08-10T21:19:53.770Z,1.20
2022-08-10T21:22:44.975Z,1.65
2022-08-10T21:25:19.779Z,1.75
2022-08-10T21:30:37.717Z,1.25
2022-08-10T21:33:15.209Z,1.45
2022-08-10T21:35:49.332Z,1.17
2022-08-10T21:38:31.513Z,1.40
2022-08-10T21:41:57.268Z,1.13
2022-08-10T21:45:43.485Z,1.17
2022-08-10T21:48:57.225Z,1.25
2022-08-10T21:52:01.847Z,1.27
2022-08-10T21:55:16.970Z,1.10
2022-08-10T21:58:36.802Z,1.08
2022-08-10T22:04:30.009Z,0.90
2022-08-10T22:07:20.179Z,1.10
2022-08-10T22:10:09.510Z,1.17
2022-08-10T22:13:02.623Z,1.10
2022-08-10T22:16:10.668Z,0.98
2022-08-10T22:19:02.889Z,1.00
2022-08-10T22:22:27.411Z,0.82
2022-08-10T22:25:24.689Z,0.90
2022-08-10T22:28:12.465Z,0.98
2022-08-10T22:31:31.617Z,0.80
2022-08-10T22:34:35.146Z,1.00
2022-08-10T22:37:46.013Z,1.10
2022-08-10T22:40:42.475Z,1.08
2022-08-10T22:43:37.985Z,1.00
2022-08-10T22:46:32.268Z,0.80
2022-08-10T22:49:02.163Z,0.88
2022-08-10T22:51:34.867Z,0.90
2022-08-10T22:54:48.317Z,0.88
2022-08-10T22:57:35.771Z,0.73
2022-08-10T23:00:16.229Z,0.80
2022-08-10T23:03:12.371Z,0.82
2022-08-10T23:05:48.510Z,0.80
2022-08-10T23:08:30.321Z,0.65
2022-08-10T23:11:03.822Z,0.70
2022-08-10T23:13:36.779Z,0.70
2022-08-10T23:16:44.743Z,1.00
2022-08-10T23:19:20.958Z,0.60
2022-08-10T23:22:04.642Z,0.80
2022-08-10T23:24:49.081Z,0.70
2022-08-10T23:27:39.137Z,0.60
2022-08-10T23:30:10.114Z,0.90
2022-08-10T23:32:44.089Z,0.80
2022-08-10T23:36:30.535Z,0.88
2022-08-10T23:38:09.101Z,0.70
2022-08-10T23:40:37.102Z,0.70
2022-08-10T23:43:05.834Z,0.90
2022-08-10T23:45:53.105Z,0.60
2022-08-10T23:48:23.745Z,0.88
2022-08-10T23:50:58.463Z,0.88
2022-08-10T23:53:33.647Z,0.65
2022-08-10T23:56:07.027Z,0.70
2022-08-10T23:59:00.517Z,0.60
